createdAt,value
2022-10-19T00:01:54.080Z,6.10
2022-10-19T00:04:22.535Z,6.25
2022-10-19T00:06:54.687Z,6.03
2022-10-19T00:09:24.328Z,6.75
2022-10-19T00:11:54.021Z,6.88
2022-10-19T00:14:25.466Z,9.75
2022-10-19T00:16:56.209Z,7.90
2022-10-19T00:19:29.585Z,8.63
2022-10-19T00:21:59.734Z,7.35
2022-10-19T00:24:28.623Z,7.18
2022-10-19T00:26:58.936Z,6.72
2022-10-19T00:29:32.151Z,7.18
2022-10-19T00:32:05.293Z,7.05
2022-10-19T00:34:36.297Z,6.10
2022-10-19T00:37:05.445Z,6.32
2022-10-19T00:39:34.348Z,6.40
2022-10-19T00:42:02.731Z,6.82
2022-10-19T00:45:06.941Z,6.43
2022-10-19T00:47:36.909Z,6.80
2022-10-19T00:50:07.820Z,6.40
2022-10-19T00:52:38.185Z,5.88
2022-10-19T00:55:09.880Z,5.95
2022-10-19T00:57:38.508Z,6.80
2022-10-19T01:00:10.561Z,6.30
2022-10-19T01:02:41.156Z,5.75
2022-10-19T01:05:11.683Z,6.38
2022-10-19T01:07:40.474Z,6.20
2022-10-19T01:10:10.884Z,6.22
2022-10-19T01:12:59.459Z,5.90
2022-10-19T01:15:42.110Z,6.47
2022-10-19T01:18:23.442Z,6.93
2022-10-19T01:21:17.558Z,6.53
2022-10-19T01:24:30.024Z,6.47
2022-10-19T01:27:51.796Z,6.18
2022-10-19T01:30:53.278Z,5.78
2022-10-19T01:33:44.078Z,5.68
2022-10-19T01:36:24.388Z,5.70
2022-10-19T01:39:02.794Z,5.35
2022-10-19T01:41:45.322Z,5.65
2022-10-19T01:44:21.230Z,5.55
2022-10-19T01:46:55.969Z,5.53
2022-10-19T01:49:33.689Z,5.55
2022-10-19T01:52:08.387Z,5.60
2022-10-19T01:54:49.268Z,5.57
2022-10-19T01:57:23.737Z,5.70
2022-10-19T01:59:55.107Z,5.20
2022-10-19T02:02:27.632Z,5.70
2022-10-19T02:04:59.585Z,5.47
2022-10-19T02:07:29.049Z,4.97
2022-10-19T02:09:58.298Z,5.85
2022-10-19T02:12:30.306Z,5.20
2022-10-19T02:15:04.238Z,5.28
2022-10-19T02:17:42.140Z,4.43
2022-10-19T02:20:13.254Z,5.22
2022-10-19T02:22:42.994Z,5.80
2022-10-19T02:25:13.023Z,5.20
2022-10-19T02:27:45.502Z,4.75
2022-10-19T02:30:19.464Z,5.38
2022-10-19T02:33:01.530Z,5.00
2022-10-19T02:35:30.577Z,4.97
2022-10-19T02:38:03.049Z,4.93
2022-10-19T02:40:41.930Z,5.10
2022-10-19T02:43:19.459Z,5.50
2022-10-19T02:45:55.531Z,5.63
2022-10-19T02:48:31.386Z,5.97
2022-10-19T02:51:00.142Z,5.63
2022-10-19T02:53:28.525Z,4.90
2022-10-19T02:55:57.880Z,5.00
2022-10-19T02:58:27.155Z,5.45
2022-10-19T03:00:56.427Z,5.28
2022-10-19T03:03:27.050Z,5.07
2022-10-19T03:05:57.294Z,5.45
2022-10-19T03:08:26.229Z,5.40
2022-10-19T03:10:56.195Z,5.50
2022-10-19T03:13:30.407Z,5.10
2022-10-19T03:16:06.867Z,4.88
2022-10-19T03:18:38.569Z,5.15
2022-10-19T03:21:09.815Z,4.88
2022-10-19T03:23:39.674Z,5.30
2022-10-19T03:26:12.133Z,5.53
2022-10-19T03:28:56.590Z,5.63
2022-10-19T03:31:27.584Z,6.17
2022-10-19T03:33:57.518Z,5.25
2022-10-19T03:36:28.696Z,5.30
2022-10-19T03:39:00.352Z,5.00
2022-10-19T03:41:31.397Z,5.40
2022-10-19T03:46:32.246Z,5.78
2022-10-19T03:49:04.543Z,5.68
2022-10-19T03:51:34.176Z,5.97
2022-10-19T03:54:09.303Z,5.78
2022-10-19T03:56:38.565Z,5.68
2022-10-19T03:59:08.420Z,5.78
2022-10-19T04:01:40.542Z,5.60
2022-10-19T04:04:16.931Z,5.32
2022-10-19T04:06:50.220Z,5.45
2022-10-19T04:09:21.579Z,5.22
2022-10-19T04:11:51.363Z,4.97
2022-10-19T04:14:32.333Z,5.25
2022-10-19T04:17:01.846Z,5.65
2022-10-19T04:19:32.569Z,5.97
2022-10-19T04:22:01.206Z,5.93
2022-10-19T04:24:31.278Z,5.95
2022-10-19T04:26:59.598Z,5.75
2022-10-19T04:29:30.890Z,5.20
2022-10-19T04:32:03.113Z,5.93
2022-10-19T04:34:37.728Z,5.50
2022-10-19T04:37:10.662Z,5.57
2022-10-19T04:39:41.184Z,5.72
2022-10-19T04:42:15.632Z,5.80
2022-10-19T04:44:44.837Z,5.17
2022-10-19T04:47:14.853Z,5.38
2022-10-19T04:49:45.266Z,5.43
2022-10-19T04:52:13.986Z,5.60
2022-10-19T04:54:43.750Z,5.75
2022-10-19T04:57:15.241Z,7.78
2022-10-19T04:59:46.227Z,7.57
2022-10-19T05:02:15.170Z,7.03
2022-10-19T05:04:45.743Z,6.32
2022-10-19T05:07:14.839Z,8.55
2022-10-19T05:09:45.639Z,7.18
2022-10-19T05:12:23.650Z,7.50
2022-10-19T05:14:55.124Z,6.90
2022-10-19T05:17:25.872Z,7.25
2022-10-19T05:19:57.515Z,6.38
2022-10-19T05:22:26.738Z,7.30
2022-10-19T05:25:17.143Z,6.88
2022-10-19T05:27:46.772Z,6.47
2022-10-19T05:30:15.541Z,7.22
2022-10-19T05:32:44.979Z,9.07
2022-10-19T05:35:18.755Z,9.00
2022-10-19T05:37:50.375Z,8.82
2022-10-19T05:40:20.277Z,8.25
2022-10-19T05:42:48.768Z,8.27
2022-10-19T05:45:18.443Z,10.15
2022-10-19T05:47:47.997Z,8.40
2022-10-19T05:50:18.038Z,7.65
2022-10-19T05:52:46.597Z,7.72
2022-10-19T05:55:15.697Z,7.72
2022-10-19T05:57:46.284Z,7.22
2022-10-19T06:00:17.047Z,7.18
2022-10-19T06:02:48.071Z,8.20
2022-10-19T06:05:19.584Z,7.45
2022-10-19T06:07:48.539Z,7.60
2022-10-19T06:10:19.351Z,7.97
2022-10-19T06:12:50.602Z,6.68
2022-10-19T06:15:20.882Z,6.45
2022-10-19T06:17:49.418Z,7.30
2022-10-19T06:20:19.503Z,7.00
2022-10-19T06:22:48.017Z,7.07
2022-10-19T06:25:20.241Z,6.78
2022-10-19T06:27:50.639Z,6.80
2022-10-19T06:30:21.603Z,6.80
2022-10-19T06:32:54.204Z,6.90
2022-10-19T06:35:31.171Z,6.95
2022-10-19T06:37:59.955Z,7.00
2022-10-19T06:40:30.427Z,6.65
2022-10-19T06:42:59.402Z,7.13
2022-10-19T06:45:32.228Z,7.28
2022-10-19T06:48:07.494Z,7.55
2022-10-19T06:50:38.876Z,7.85
2022-10-19T06:53:07.300Z,8.40
2022-10-19T06:55:53.875Z,7.40
2022-10-19T06:58:23.654Z,7.65
2022-10-19T07:01:02.546Z,7.35
2022-10-19T07:03:36.767Z,7.38
2022-10-19T07:06:11.364Z,8.13
2022-10-19T07:08:43.716Z,7.82
2022-10-19T07:11:19.871Z,8.85
2022-10-19T07:13:48.730Z,8.18
2022-10-19T07:16:22.288Z,8.65
2022-10-19T07:18:53.766Z,8.68
2022-10-19T07:21:27.078Z,12.70
2022-10-19T07:23:57.151Z,9.38
2022-10-19T07:26:30.603Z,8.40
2022-10-19T07:28:59.784Z,9.70
2022-10-19T07:31:30.341Z,12.13
2022-10-19T07:34:02.345Z,9.07
2022-10-19T07:36:37.172Z,8.13
2022-10-19T07:39:09.477Z,8.48
2022-10-19T07:41:38.381Z,9.23
2022-10-19T07:44:08.242Z,8.13
2022-10-19T07:46:39.862Z,7.95
2022-10-19T07:49:11.442Z,8.30
2022-10-19T07:51:42.248Z,8.43
2022-10-19T07:54:10.810Z,8.20
2022-10-19T07:56:45.816Z,7.60
2022-10-19T07:59:17.207Z,7.47
2022-10-19T08:01:47.649Z,7.20
2022-10-19T08:07:08.181Z,6.70
2022-10-19T08:09:54.847Z,7.05
2022-10-19T08:12:28.349Z,6.05
2022-10-19T08:14:56.606Z,5.40
2022-10-19T08:17:25.005Z,5.35
2022-10-19T08:19:54.413Z,5.07
2022-10-19T08:22:24.484Z,4.57
2022-10-19T08:24:54.604Z,4.25
2022-10-19T08:27:23.744Z,3.83
2022-10-19T08:29:52.834Z,3.80
2022-10-19T08:32:23.031Z,3.65
2022-10-19T08:34:51.850Z,3.40
2022-10-19T08:37:39.976Z,2.65
2022-10-19T08:40:22.154Z,3.28
2022-10-19T08:43:00.103Z,2.95
2022-10-19T08:45:43.043Z,3.35
2022-10-19T08:48:32.991Z,2.35
2022-10-19T08:51:03.074Z,2.60
2022-10-19T08:53:46.167Z,2.55
2022-10-19T08:56:50.958Z,2.47
2022-10-19T08:59:32.889Z,2.40
2022-10-19T09:02:05.896Z,2.60
2022-10-19T09:04:39.314Z,1.83
2022-10-19T09:07:48.734Z,1.67
2022-10-19T09:10:25.945Z,2.03
2022-10-19T09:13:03.110Z,1.70
2022-10-19T09:15:42.407Z,1.98
2022-10-19T09:18:13.999Z,1.58
2022-10-19T09:20:49.508Z,1.50
2022-10-19T09:23:26.117Z,1.70
2022-10-19T09:25:58.142Z,1.80
2022-10-19T09:31:40.678Z,1.67
2022-10-19T09:34:26.541Z,1.52
2022-10-19T09:36:59.123Z,1.38
2022-10-19T09:39:30.757Z,1.35
2022-10-19T09:42:02.702Z,1.88
2022-10-19T09:44:34.150Z,1.67
2022-10-19T09:47:33.640Z,1.27
2022-10-19T09:50:19.100Z,1.67
2022-10-19T09:52:49.690Z,1.50
2022-10-19T09:55:37.322Z,1.48
2022-10-19T09:58:18.457Z,1.40
2022-10-19T10:00:57.740Z,1.70
2022-10-19T10:03:41.862Z,1.45
2022-10-19T10:06:16.165Z,1.40
2022-10-19T10:08:50.859Z,1.13
2022-10-19T10:11:32.901Z,1.60
2022-10-19T10:14:17.854Z,1.38
2022-10-19T10:16:50.482Z,1.30
2022-10-19T10:19:23.174Z,1.05
2022-10-19T10:21:58.676Z,1.60
2022-10-19T10:24:30.262Z,1.52
2022-10-19T10:27:04.322Z,1.38
2022-10-19T10:32:33.861Z,1.35
2022-10-19T10:35:09.777Z,1.10
2022-10-19T10:37:46.150Z,1.38
2022-10-19T10:40:25.994Z,1.60
2022-10-19T10:43:04.342Z,1.08
2022-10-19T10:45:39.657Z,1.45
2022-10-19T10:48:29.533Z,1.40
2022-10-19T10:51:03.397Z,1.10
2022-10-19T10:53:38.889Z,1.38
2022-10-19T10:59:04.527Z,1.30
2022-10-19T11:01:41.703Z,1.30
2022-10-19T11:04:17.843Z,1.52
2022-10-19T11:06:57.343Z,1.30
2022-10-19T11:09:32.551Z,1.33
2022-10-19T11:14:47.614Z,1.58
2022-10-19T11:17:22.383Z,1.60
2022-10-19T11:19:57.515Z,1.30
2022-10-19T11:22:34.413Z,1.40
2022-10-19T11:25:33.169Z,1.58
2022-10-19T11:28:27.623Z,1.20
2022-10-19T11:31:07.856Z,1.92
2022-10-19T11:34:03.569Z,1.63
2022-10-19T11:36:53.278Z,1.52
2022-10-19T11:39:49.567Z,1.83
2022-10-19T11:42:30.628Z,1.77
2022-10-19T11:45:23.532Z,1.83
2022-10-19T11:51:22.174Z,1.85
2022-10-19T11:54:23.381Z,1.35
2022-10-19T11:57:17.382Z,2.50
2022-10-19T12:00:21.214Z,1.80
2022-10-19T12:03:43.971Z,1.65
2022-10-19T12:06:23.089Z,1.60
2022-10-19T12:09:10.643Z,2.50
2022-10-19T12:12:01.790Z,1.58
2022-10-19T12:14:38.950Z,2.10
2022-10-19T12:17:17.391Z,1.67
2022-10-19T12:19:53.344Z,1.80
2022-10-19T12:22:27.305Z,1.83
2022-10-19T12:24:59.127Z,1.80
2022-10-19T12:27:37.403Z,1.90
2022-10-19T12:30:15.759Z,2.10
2022-10-19T12:33:04.287Z,2.10
2022-10-19T12:36:06.005Z,1.60
2022-10-19T12:38:50.941Z,1.50
2022-10-19T12:41:31.530Z,2.25
2022-10-19T12:44:26.026Z,2.30
2022-10-19T12:47:01.827Z,2.22
2022-10-19T12:49:45.526Z,1.77
2022-10-19T12:52:18.704Z,2.33
2022-10-19T12:54:48.322Z,2.22
2022-10-19T12:57:29.914Z,1.92
2022-10-19T13:00:21.046Z,1.90
2022-10-19T13:02:58.647Z,2.10
2022-10-19T13:05:30.495Z,1.85
2022-10-19T13:08:04.119Z,2.50
2022-10-19T13:10:34.592Z,1.83
2022-10-19T13:13:04.774Z,2.00
2022-10-19T13:15:59.694Z,2.28
2022-10-19T13:19:21.803Z,2.08
2022-10-19T13:22:13.817Z,2.33
2022-10-19T13:24:42.734Z,2.30
2022-10-19T13:27:45.078Z,2.35
2022-10-19T13:31:09.169Z,1.90
2022-10-19T13:33:52.620Z,2.00
2022-10-19T13:36:23.947Z,2.03
2022-10-19T13:39:16.722Z,2.10
2022-10-19T13:41:54.706Z,1.95
2022-10-19T13:44:37.452Z,2.05
2022-10-19T13:47:41.423Z,2.20
2022-10-19T13:50:38.745Z,1.90
2022-10-19T13:53:32.112Z,2.10
2022-10-19T13:56:33.237Z,1.85
2022-10-19T13:59:40.701Z,2.00
2022-10-19T14:02:57.279Z,2.20
2022-10-19T14:06:04.776Z,1.88
2022-10-19T14:09:31.008Z,2.15
2022-10-19T14:12:09.427Z,1.88
2022-10-19T14:17:24.316Z,2.40
2022-10-19T14:19:57.166Z,2.03
2022-10-19T14:22:30.266Z,1.90
2022-10-19T14:25:09.020Z,2.45
2022-10-19T14:27:38.352Z,2.83
2022-10-19T14:30:21.646Z,2.30
2022-10-19T14:32:56.888Z,2.30
2022-10-19T14:35:34.477Z,2.50
2022-10-19T14:38:05.553Z,2.28
2022-10-19T14:40:39.517Z,2.35
2022-10-19T14:43:24.065Z,2.00
2022-10-19T14:46:19.382Z,2.50
2022-10-19T14:48:50.275Z,1.90
2022-10-19T14:51:34.565Z,2.70
2022-10-19T14:54:09.086Z,2.28
2022-10-19T14:56:45.860Z,2.10
2022-10-19T14:59:25.599Z,2.15
2022-10-19T15:01:59.192Z,2.33
2022-10-19T15:04:31.730Z,2.35
2022-10-19T15:07:05.616Z,2.55
2022-10-19T15:09:48.258Z,2.20
2022-10-19T15:12:24.672Z,2.00
2022-10-19T15:14:53.399Z,2.15
2022-10-19T15:17:36.467Z,2.25
2022-10-19T15:20:05.910Z,2.60
2022-10-19T15:22:44.078Z,2.70
2022-10-19T15:25:36.859Z,2.95
2022-10-19T15:28:37.425Z,2.40
2022-10-19T15:31:22.263Z,2.45
2022-10-19T15:33:59.515Z,2.42
2022-10-19T15:36:34.373Z,2.38
2022-10-19T15:39:18.496Z,2.75
2022-10-19T15:41:55.366Z,2.97
2022-10-19T15:44:41.397Z,3.00
2022-10-19T15:47:25.349Z,2.72
2022-10-19T15:50:00.629Z,3.03
2022-10-19T15:52:34.330Z,2.95
2022-10-19T15:58:46.991Z,2.60
2022-10-19T16:01:22.584Z,2.90
2022-10-19T16:03:51.514Z,3.20
2022-10-19T16:06:21.732Z,3.10
2022-10-19T16:08:51.522Z,2.90
2022-10-19T16:14:22.248Z,3.50
2022-10-19T16:16:51.898Z,3.55
2022-10-19T16:19:20.999Z,4.43
2022-10-19T16:21:50.477Z,3.80
2022-10-19T16:24:23.016Z,3.72
2022-10-19T16:26:51.980Z,4.35
2022-10-19T16:29:28.142Z,4.85
2022-10-19T16:31:59.329Z,4.50
2022-10-19T16:34:28.993Z,5.47
2022-10-19T16:36:57.873Z,4.80
2022-10-19T16:39:28.698Z,4.72
2022-10-19T16:41:57.634Z,5.30
2022-10-19T16:44:27.640Z,4.20
2022-10-19T16:46:59.266Z,5.35
2022-10-19T16:49:29.208Z,4.15
2022-10-19T16:51:58.937Z,4.40
2022-10-19T16:54:32.899Z,4.60
2022-10-19T16:57:03.714Z,4.05
2022-10-19T16:59:38.554Z,4.63
2022-10-19T17:02:07.285Z,4.70
2022-10-19T17:04:38.074Z,4.47
2022-10-19T17:09:54.665Z,4.80
2022-10-19T17:12:24.854Z,4.72
2022-10-19T17:15:11.636Z,4.32
2022-10-19T17:17:46.625Z,4.20
2022-10-19T17:20:16.059Z,4.20
2022-10-19T17:22:45.567Z,4.50
2022-10-19T17:25:14.516Z,4.57
2022-10-19T17:27:43.981Z,4.00
2022-10-19T17:30:15.363Z,5.43
2022-10-19T17:32:44.040Z,3.97
2022-10-19T17:35:12.704Z,28.90
2022-10-19T17:37:41.797Z,5.72
2022-10-19T17:40:12.399Z,5.90
2022-10-19T17:42:41.543Z,4.90
2022-10-19T17:45:11.926Z,5.90
2022-10-19T17:48:22.770Z,4.72
2022-10-19T17:50:59.195Z,4.32
2022-10-19T17:53:32.608Z,4.30
2022-10-19T17:56:07.064Z,4.80
2022-10-19T18:01:24.260Z,5.03
2022-10-19T18:03:57.233Z,5.60
2022-10-19T18:06:36.010Z,4.82
2022-10-19T18:09:08.609Z,5.10
2022-10-19T18:11:44.004Z,5.28
2022-10-19T18:14:14.799Z,5.70
2022-10-19T18:16:49.951Z,5.93
2022-10-19T18:19:25.618Z,5.43
2022-10-19T18:21:55.945Z,4.80
2022-10-19T18:24:25.309Z,5.10
2022-10-19T18:26:54.780Z,5.28
2022-10-19T18:29:26.895Z,4.88
2022-10-19T18:31:58.033Z,5.65
2022-10-19T18:51:00.101Z,5.43
2022-10-19T18:53:30.039Z,5.40
2022-10-19T18:56:00.100Z,5.93
2022-10-19T18:58:34.162Z,5.88
2022-10-19T19:01:13.269Z,5.72
2022-10-19T19:03:47.681Z,6.30
2022-10-19T19:06:23.675Z,5.47
2022-10-19T19:08:57.779Z,5.10
2022-10-19T19:11:31.803Z,5.90
2022-10-19T19:14:06.797Z,8.57
2022-10-19T19:16:38.676Z,9.23
2022-10-19T19:19:08.573Z,7.93
2022-10-19T19:21:38.669Z,6.65
2022-10-19T19:24:09.509Z,6.50
2022-10-19T19:26:44.102Z,6.00
2022-10-19T19:29:13.482Z,5.17
2022-10-19T19:31:47.227Z,6.32
2022-10-19T19:34:18.181Z,5.88
2022-10-19T19:36:50.234Z,6.53
2022-10-19T19:39:22.659Z,6.07
2022-10-19T19:41:52.432Z,8.13
2022-10-19T19:44:22.383Z,6.80
2022-10-19T19:46:51.830Z,6.50
2022-10-19T19:49:21.272Z,6.28
2022-10-19T19:51:53.385Z,6.18
2022-10-19T19:54:28.539Z,6.65
2022-10-19T19:57:01.475Z,6.38
2022-10-19T19:59:30.724Z,6.97
2022-10-19T20:02:21.197Z,6.28
2022-10-19T20:04:50.056Z,6.03
2022-10-19T20:07:20.631Z,5.72
2022-10-19T20:09:49.351Z,5.85
2022-10-19T20:12:18.848Z,5.75
2022-10-19T20:14:48.711Z,6.25
2022-10-19T20:17:24.665Z,5.95
2022-10-19T20:19:58.404Z,7.20
2022-10-19T20:22:28.842Z,6.22
2022-10-19T20:24:57.436Z,6.72
2022-10-19T20:27:26.048Z,6.32
2022-10-19T20:29:58.621Z,6.03
2022-10-19T20:32:28.024Z,6.53
2022-10-19T20:34:57.177Z,6.68
2022-10-19T20:37:27.675Z,6.45
2022-10-19T20:39:57.184Z,6.55
2022-10-19T20:42:25.651Z,5.97
2022-10-19T20:44:57.972Z,6.47
2022-10-19T20:47:28.365Z,5.97
2022-10-19T20:49:57.128Z,6.55
2022-10-19T20:52:28.491Z,6.25
2022-10-19T20:54:57.445Z,5.43
2022-10-19T20:57:26.085Z,6.50
2022-10-19T20:59:55.843Z,6.40
2022-10-19T21:02:24.623Z,5.90
2022-10-19T21:04:54.589Z,5.68
2022-10-19T21:07:23.489Z,6.10
2022-10-19T21:09:56.954Z,6.60
2022-10-19T21:12:25.463Z,5.63
2022-10-19T21:14:54.409Z,5.57
2022-10-19T21:17:24.753Z,6.53
2022-10-19T21:19:57.203Z,5.70
2022-10-19T21:22:26.072Z,5.88
2022-10-19T21:24:57.906Z,6.10
2022-10-19T21:27:27.736Z,6.47
2022-10-19T21:29:56.196Z,6.22
2022-10-19T21:32:25.871Z,5.65
2022-10-19T21:34:54.271Z,6.32
2022-10-19T21:37:23.151Z,5.68
2022-10-19T21:39:54.539Z,6.45
2022-10-19T21:42:27.098Z,5.63
2022-10-19T21:45:01.401Z,6.35
2022-10-19T21:47:44.537Z,5.88
2022-10-19T21:50:20.445Z,5.82
2022-10-19T21:52:50.133Z,6.45
2022-10-19T21:55:24.074Z,5.68
2022-10-19T21:57:54.551Z,6.07
2022-10-19T22:00:25.162Z,6.25
2022-10-19T22:02:55.166Z,5.57
2022-10-19T22:05:25.182Z,5.85
2022-10-19T22:07:55.249Z,6.55
2022-10-19T22:10:27.573Z,5.80
2022-10-19T22:12:59.991Z,6.15
2022-10-19T22:15:43.253Z,5.97
2022-10-19T22:18:14.623Z,5.82
2022-10-19T22:20:44.838Z,5.97
2022-10-19T22:23:15.081Z,5.63
2022-10-19T22:25:47.673Z,6.70
2022-10-19T22:28:24.431Z,6.05
2022-10-19T22:31:09.495Z,5.65
2022-10-19T22:33:40.642Z,6.67
2022-10-19T22:36:18.298Z,6.32
2022-10-19T22:38:49.949Z,6.22
2022-10-19T22:41:18.667Z,6.25
2022-10-19T22:43:53.368Z,5.90
2022-10-19T22:46:25.442Z,6.45
2022-10-19T22:48:54.204Z,7.35
2022-10-19T22:51:23.736Z,6.75
2022-10-19T22:53:52.346Z,6.75
2022-10-19T22:56:21.140Z,6.93
2022-10-19T22:58:52.154Z,6.90
2022-10-19T23:01:21.795Z,6.15
2022-10-19T23:03:51.232Z,8.05
2022-10-19T23:06:21.891Z,6.78
2022-10-19T23:08:51.194Z,7.15
2022-10-19T23:11:20.934Z,7.35
2022-10-19T23:13:51.531Z,7.28
2022-10-19T23:16:20.862Z,7.00
2022-10-19T23:18:49.415Z,7.30
2022-10-19T23:21:18.474Z,6.97
2022-10-19T23:23:47.826Z,7.68
2022-10-19T23:26:18.758Z,7.60
2022-10-19T23:28:52.755Z,7.35
2022-10-19T23:31:25.448Z,8.43
2022-10-19T23:33:55.449Z,7.40
2022-10-19T23:36:27.073Z,8.63
2022-10-19T23:38:58.855Z,8.13
2022-10-19T23:41:31.315Z,8.07
2022-10-19T23:44:01.420Z,7.50
2022-10-19T23:46:31.230Z,8.65
2022-10-19T23:49:00.424Z,8.18
2022-10-19T23:51:29.661Z,8.18
2022-10-19T23:54:03.666Z,8.32
2022-10-19T23:56:33.254Z,8.18
